Matoaca, Virginia
Current Conditions -  °F | °C
As of 1:15 PM on Thursday 27 Nov 2014 (Local Time) from KPTB Reporting Station
Overcast Overcast  
Wind Chill: 44°   Ceiling: 1400
Heat Index: 47°   Visibility: 10mi
Dew Point: 42°   Wind: 6mph
Humidity: 84%   Direction: 310°NW
Pressure: 30.03"   Gusts: NA
Location:  37.2163°N, 77.4783°W
Report Text: KPTB 271815Z AUTO 31005KT 10SM BKN014 BKN022 OVC100 08/06 A3003 RMK AO2 T00820057
Loading
Personal Weather Stations






























Interactive Weather Map New forecast layout! Learn more

10-Day Weather Forecast

Advertisements
Track Severe Weather on mobile